Walker Landing, California
Current Conditions -  °F | °C
As of 9:58 PM on Saturday 25 Oct 2014 (Local Time) from KSUU Reporting Station
Overcast Overcast  
Wind Chill: 61°   Ceiling: 10000
Heat Index: 61°   Visibility: 10mi
Dew Point: 58°   Wind: 12mph
Humidity: 90%   Direction: 240°WSW
Pressure: 30.1"   Gusts: NA
Location:  38.2298°N, 121.579°W
Report Text: KSUU 260458Z AUTO 24010KT 10SM OVC100 16/15 A3010 RMK AO2 SLP200 T01620145 $
Loading
Personal Weather Stations






























Interactive Weather Map
Tropical Storm Tracking
New forecast layout! Learn more

10-Day Weather Forecast

Advertisements
Track Severe Weather on mobile